sensor_id;sensor_type;location;lat;lon;timestamp;P1;P2;P0
62547;PMS7003;48602;45.192;5.722;2023-06-05T00:00:39;8.75;6.75;5.00
62547;PMS7003;48602;45.192;5.722;2023-06-05T00:03:04;7.75;7.75;7.00
62547;PMS7003;48602;45.192;5.722;2023-06-05T00:05:30;8.25;7.00;6.50
62547;PMS7003;48602;45.192;5.722;2023-06-05T00:07:56;6.20;6.20;5.60
62547;PMS7003;48602;45.192;5.722;2023-06-05T00:10:21;8.00;7.00;6.75
62547;PMS7003;48602;45.192;5.722;2023-06-05T00:12:47;8.00;8.00;6.25
62547;PMS7003;48602;45.192;5.722;2023-06-05T00:15:12;7.25;6.00;5.75
62547;PMS7003;48602;45.192;5.722;2023-06-05T00:17:38;8.00;8.00;6.00
62547;PMS7003;48602;45.192;5.722;2023-06-05T00:20:03;8.00;8.00;7.50
62547;PMS7003;48602;45.192;5.722;2023-06-05T00:22:30;11.00;8.50;7.00
62547;PMS7003;48602;45.192;5.722;2023-06-05T00:24:56;12.00;11.75;9.25
62547;PMS7003;48602;45.192;5.722;2023-06-05T00:27:22;10.00;8.50;7.00
62547;PMS7003;48602;45.192;5.722;2023-06-05T00:29:48;7.75;6.00;5.75
62547;PMS7003;48602;45.192;5.722;2023-06-05T00:32:14;12.00;9.75;8.50
62547;PMS7003;48602;45.192;5.722;2023-06-05T00:34:39;11.75;11.50;9.50
62547;PMS7003;48602;45.192;5.722;2023-06-05T00:37:05;10.50;8.25;7.00
62547;PMS7003;48602;45.192;5.722;2023-06-05T00:39:31;17.20;12.20;9.80
62547;PMS7003;48602;45.192;5.722;2023-06-05T00:41:57;12.00;11.25;8.75
62547;PMS7003;48602;45.192;5.722;2023-06-05T00:44:23;13.50;13.50;12.00
62547;PMS7003;48602;45.192;5.722;2023-06-05T00:46:48;17.25;17.25;12.50
62547;PMS7003;48602;45.192;5.722;2023-06-05T00:49:16;18.60;17.20;13.00
62547;PMS7003;48602;45.192;5.722;2023-06-05T00:51:42;17.75;16.00;12.50
62547;PMS7003;48602;45.192;5.722;2023-06-05T00:54:10;22.50;21.00;16.00
62547;PMS7003;48602;45.192;5.722;2023-06-05T00:56:36;19.75;18.50;15.50
62547;PMS7003;48602;45.192;5.722;2023-06-05T00:59:02;16.50;15.00;10.50
62547;PMS7003;48602;45.192;5.722;2023-06-05T01:01:28;17.50;17.50;12.75
62547;PMS7003;48602;45.192;5.722;2023-06-05T01:03:54;18.75;18.50;14.25
62547;PMS7003;48602;45.192;5.722;2023-06-05T01:06:23;16.75;15.75;12.75
62547;PMS7003;48602;45.192;5.722;2023-06-05T01:08:51;18.40;15.80;13.20
62547;PMS7003;48602;45.192;5.722;2023-06-05T01:14:11;15.75;15.75;13.75
62547;PMS7003;48602;45.192;5.722;2023-06-05T01:16:41;15.00;14.50;11.50
62547;PMS7003;48602;45.192;5.722;2023-06-05T01:19:10;15.00;15.00;11.80
62547;PMS7003;48602;45.192;5.722;2023-06-05T01:21:39;13.20;10.40;8.40
62547;PMS7003;48602;45.192;5.722;2023-06-05T01:24:05;13.25;12.25;10.00
62547;PMS7003;48602;45.192;5.722;2023-06-05T01:26:36;12.25;12.25;9.50
62547;PMS7003;48602;45.192;5.722;2023-06-05T01:29:09;12.20;11.60;9.80
62547;PMS7003;48602;45.192;5.722;2023-06-05T01:31:37;12.75;12.00;9.50
62547;PMS7003;48602;45.192;5.722;2023-06-05T01:34:05;11.25;11.25;9.25
62547;PMS7003;48602;45.192;5.722;2023-06-05T01:36:36;11.40;11.40;9.20
62547;PMS7003;48602;45.192;5.722;2023-06-05T01:39:03;13.00;11.20;8.80
62547;PMS7003;48602;45.192;5.722;2023-06-05T01:41:29;9.40;9.40;8.00
62547;PMS7003;48602;45.192;5.722;2023-06-05T01:43:55;10.25;8.50;6.00
62547;PMS7003;48602;45.192;5.722;2023-06-05T01:46:21;10.75;10.00;8.25
62547;PMS7003;48602;45.192;5.722;2023-06-05T01:48:48;11.40;10.20;7.20
62547;PMS7003;48602;45.192;5.722;2023-06-05T01:51:15;10.20;9.40;7.80
62547;PMS7003;48602;45.192;5.722;2023-06-05T01:53:40;7.75;7.75;6.00
62547;PMS7003;48602;45.192;5.722;2023-06-05T01:56:06;5.00;4.75;4.25
62547;PMS7003;48602;45.192;5.722;2023-06-05T01:58:33;4.80;4.40;3.40
62547;PMS7003;48602;45.192;5.722;2023-06-05T02:00:58;4.25;4.00;3.75
62547;PMS7003;48602;45.192;5.722;2023-06-05T02:03:24;4.00;4.00;3.50
62547;PMS7003;48602;45.192;5.722;2023-06-05T02:05:50;4.25;3.75;3.50
62547;PMS7003;48602;45.192;5.722;2023-06-05T02:08:18;4.00;4.00;3.20
62547;PMS7003;48602;45.192;5.722;2023-06-05T02:10:45;6.00;4.40;4.00
62547;PMS7003;48602;45.192;5.722;2023-06-05T02:13:11;7.40;6.00;4.40
62547;PMS7003;48602;45.192;5.722;2023-06-05T02:15:37;7.50;7.00;6.00
62547;PMS7003;48602;45.192;5.722;2023-06-05T02:18:03;10.00;7.25;5.25
62547;PMS7003;48602;45.192;5.722;2023-06-05T02:20:29;8.80;7.20;6.20
62547;PMS7003;48602;45.192;5.722;2023-06-05T02:22:56;6.00;6.00;5.00
62547;PMS7003;48602;45.192;5.722;2023-06-05T02:25:22;2.75;2.25;2.00
62547;PMS7003;48602;45.192;5.722;2023-06-05T02:27:52;5.00;5.00;4.00
62547;PMS7003;48602;45.192;5.722;2023-06-05T02:30:18;4.60;4.60;4.00
62547;PMS7003;48602;45.192;5.722;2023-06-05T02:32:43;3.50;3.25;3.00
62547;PMS7003;48602;45.192;5.722;2023-06-05T02:35:12;3.75;3.00;3.00
62547;PMS7003;48602;45.192;5.722;2023-06-05T02:37:38;4.00;4.00;4.00
62547;PMS7003;48602;45.192;5.722;2023-06-05T02:40:12;3.60;3.60;3.00
62547;PMS7003;48602;45.192;5.722;2023-06-05T02:42:38;5.20;2.80;2.80
62547;PMS7003;48602;45.192;5.722;2023-06-05T02:45:04;4.50;4.50;4.00
62547;PMS7003;48602;45.192;5.722;2023-06-05T02:47:30;6.00;4.00;4.00
62547;PMS7003;48602;45.192;5.722;2023-06-05T02:49:59;5.00;4.00;4.00
62547;PMS7003;48602;45.192;5.722;2023-06-05T02:52:25;5.20;4.00;3.00
62547;PMS7003;48602;45.192;5.722;2023-06-05T02:54:53;5.80;4.00;3.00
62547;PMS7003;48602;45.192;5.722;2023-06-05T02:57:18;4.75;3.75;3.00
62547;PMS7003;48602;45.192;5.722;2023-06-05T02:59:44;3.50;3.50;3.25
62547;PMS7003;48602;45.192;5.722;2023-06-05T03:02:09;6.25;4.00;3.75
62547;PMS7003;48602;45.192;5.722;2023-06-05T03:04:36;5.00;3.80;3.20
62547;PMS7003;48602;45.192;5.722;2023-06-05T03:07:04;4.00;3.40;2.60
62547;PMS7003;48602;45.192;5.722;2023-06-05T03:09:30;3.25;3.25;3.00
62547;PMS7003;48602;45.192;5.722;2023-06-05T03:11:56;3.80;3.80;3.00
62547;PMS7003;48602;45.192;5.722;2023-06-05T03:14:21;5.80;4.40;4.00
62547;PMS7003;48602;45.192;5.722;2023-06-05T03:16:47;3.00;3.00;3.00
62547;PMS7003;48602;45.192;5.722;2023-06-05T03:19:12;3.00;3.00;2.00
62547;PMS7003;48602;45.192;5.722;2023-06-05T03:21:38;4.00;4.00;3.50
62547;PMS7003;48602;45.192;5.722;2023-06-05T03:24:09;4.20;4.00;4.00
62547;PMS7003;48602;45.192;5.722;2023-06-05T03:26:42;6.00;5.40;5.20
62547;PMS7003;48602;45.192;5.722;2023-06-05T03:29:11;3.60;3.60;3.20
62547;PMS7003;48602;45.192;5.722;2023-06-05T03:31:37;4.00;3.80;2.60
62547;PMS7003;48602;45.192;5.722;2023-06-05T03:34:03;5.00;5.00;3.75
62547;PMS7003;48602;45.192;5.722;2023-06-05T03:36:29;4.25;4.00;4.00
62547;PMS7003;48602;45.192;5.722;2023-06-05T03:38:55;4.40;4.00;4.00
62547;PMS7003;48602;45.192;5.722;2023-06-05T03:41:22;4.00;4.00;3.00
62547;PMS7003;48602;45.192;5.722;2023-06-05T03:43:47;4.80;4.80;3.20
62547;PMS7003;48602;45.192;5.722;2023-06-05T03:46:14;3.40;3.40;2.80
62547;PMS7003;48602;45.192;5.722;2023-06-05T03:48:43;4.00;4.00;3.40
62547;PMS7003;48602;45.192;5.722;2023-06-05T03:51:13;4.20;4.00;3.40
62547;PMS7003;48602;45.192;5.722;2023-06-05T03:53:42;6.20;5.20;4.60
62547;PMS7003;48602;45.192;5.722;2023-06-05T03:56:08;5.50;5.50;5.00
62547;PMS7003;48602;45.192;5.722;2023-06-05T03:58:34;5.00;4.00;4.00
62547;PMS7003;48602;45.192;5.722;2023-06-05T04:00:59;4.25;4.00;4.00
62547;PMS7003;48602;45.192;5.722;2023-06-05T04:03:25;4.00;4.00;3.75
62547;PMS7003;48602;45.192;5.722;2023-06-05T04:05:52;7.20;5.00;4.20
62547;PMS7003;48602;45.192;5.722;2023-06-05T04:08:17;6.00;5.00;5.00
62547;PMS7003;48602;45.192;5.722;2023-06-05T04:10:43;11.75;10.25;8.25
62547;PMS7003;48602;45.192;5.722;2023-06-05T04:13:08;8.25;8.00;6.00
62547;PMS7003;48602;45.192;5.722;2023-06-05T04:15:34;6.00;5.00;4.75
62547;PMS7003;48602;45.192;5.722;2023-06-05T04:17:59;7.50;5.00;4.00
62547;PMS7003;48602;45.192;5.722;2023-06-05T04:20:25;2.75;2.75;2.25
62547;PMS7003;48602;45.192;5.722;2023-06-05T04:22:50;5.00;4.25;4.00
62547;PMS7003;48602;45.192;5.722;2023-06-05T04:25:16;3.75;3.00;2.00
62547;PMS7003;48602;45.192;5.722;2023-06-05T04:27:43;3.20;3.20;3.00
62547;PMS7003;48602;45.192;5.722;2023-06-05T04:30:10;6.20;4.00;3.40
62547;PMS7003;48602;45.192;5.722;2023-06-05T04:32:38;4.60;4.00;4.00
62547;PMS7003;48602;45.192;5.722;2023-06-05T04:35:05;5.00;3.80;3.40
62547;PMS7003;48602;45.192;5.722;2023-06-05T04:37:31;6.00;5.00;4.00
62547;PMS7003;48602;45.192;5.722;2023-06-05T04:39:57;3.40;3.40;3.00
62547;PMS7003;48602;45.192;5.722;2023-06-05T04:42:24;4.00;4.00;3.40
62547;PMS7003;48602;45.192;5.722;2023-06-05T04:44:55;4.40;4.40;4.40
62547;PMS7003;48602;45.192;5.722;2023-06-05T04:47:22;4.60;4.60;4.40
62547;PMS7003;48602;45.192;5.722;2023-06-05T04:49:47;5.50;5.50;5.00
62547;PMS7003;48602;45.192;5.722;2023-06-05T04:52:16;5.00;5.00;5.00
62547;PMS7003;48602;45.192;5.722;2023-06-05T04:54:42;4.50;4.50;4.00
62547;PMS7003;48602;45.192;5.722;2023-06-05T04:57:08;7.00;6.00;5.50
62547;PMS7003;48602;45.192;5.722;2023-06-05T04:59:35;5.75;5.75;5.00
62547;PMS7003;48602;45.192;5.722;2023-06-05T05:02:01;7.00;6.75;5.75
62547;PMS7003;48602;45.192;5.722;2023-06-05T05:04:26;5.75;5.75;4.25
62547;PMS7003;48602;45.192;5.722;2023-06-05T05:06:51;6.00;6.00;5.00
62547;PMS7003;48602;45.192;5.722;2023-06-05T05:09:18;6.75;4.00;3.00
62547;PMS7003;48602;45.192;5.722;2023-06-05T05:11:43;5.75;5.75;5.00
62547;PMS7003;48602;45.192;5.722;2023-06-05T05:14:08;7.00;6.00;5.25
62547;PMS7003;48602;45.192;5.722;2023-06-05T05:16:34;8.00;8.00;6.50
62547;PMS7003;48602;45.192;5.722;2023-06-05T05:18:59;8.50;6.50;5.50
62547;PMS7003;48602;45.192;5.722;2023-06-05T05:21:25;7.00;7.00;6.00
62547;PMS7003;48602;45.192;5.722;2023-06-05T05:23:51;7.00;6.00;5.50
62547;PMS7003;48602;45.192;5.722;2023-06-05T05:26:16;8.50;7.00;6.00
62547;PMS7003;48602;45.192;5.722;2023-06-05T05:28:41;6.00;6.00;5.00
62547;PMS7003;48602;45.192;5.722;2023-06-05T05:31:07;11.00;7.75;5.00
62547;PMS7003;48602;45.192;5.722;2023-06-05T05:33:32;5.75;5.25;4.50
62547;PMS7003;48602;45.192;5.722;2023-06-05T05:35:58;7.00;6.25;5.50
62547;PMS7003;48602;45.192;5.722;2023-06-05T05:38:23;8.25;7.25;5.75
62547;PMS7003;48602;45.192;5.722;2023-06-05T05:40:49;9.75;8.25;6.25
62547;PMS7003;48602;45.192;5.722;2023-06-05T05:43:15;8.00;7.75;6.25
62547;PMS7003;48602;45.192;5.722;2023-06-05T05:45:41;6.20;6.20;5.20
62547;PMS7003;48602;45.192;5.722;2023-06-05T05:48:08;5.00;4.00;4.00
62547;PMS7003;48602;45.192;5.722;2023-06-05T05:50:34;8.00;7.50;6.25
62547;PMS7003;48602;45.192;5.722;2023-06-05T05:52:59;8.25;8.25;7.00
62547;PMS7003;48602;45.192;5.722;2023-06-05T05:55:25;7.50;7.50;6.00
62547;PMS7003;48602;45.192;5.722;2023-06-05T05:57:50;9.75;9.00;7.00
62547;PMS7003;48602;45.192;5.722;2023-06-05T06:00:15;9.00;9.00;8.00
62547;PMS7003;48602;45.192;5.722;2023-06-05T06:02:41;9.00;8.00;6.00
62547;PMS7003;48602;45.192;5.722;2023-06-05T06:05:07;9.25;8.00;7.00
62547;PMS7003;48602;45.192;5.722;2023-06-05T06:07:33;7.25;7.25;6.75
62547;PMS7003;48602;45.192;5.722;2023-06-05T06:10:00;9.60;8.60;6.60
62547;PMS7003;48602;45.192;5.722;2023-06-05T06:12:26;10.00;8.00;7.00
62547;PMS7003;48602;45.192;5.722;2023-06-05T06:14:53;7.00;7.00;5.80
62547;PMS7003;48602;45.192;5.722;2023-06-05T06:17:19;9.25;9.00;8.00
62547;PMS7003;48602;45.192;5.722;2023-06-05T06:19:45;10.00;10.00;8.50
62547;PMS7003;48602;45.192;5.722;2023-06-05T06:22:12;9.40;8.20;6.40
62547;PMS7003;48602;45.192;5.722;2023-06-05T06:24:41;10.00;10.00;10.00
62547;PMS7003;48602;45.192;5.722;2023-06-05T06:27:10;10.20;10.20;9.00
62547;PMS7003;48602;45.192;5.722;2023-06-05T06:29:45;11.60;10.20;9.00
62547;PMS7003;48602;45.192;5.722;2023-06-05T06:32:12;15.20;15.20;11.20
62547;PMS7003;48602;45.192;5.722;2023-06-05T06:34:38;12.50;12.50;9.00
62547;PMS7003;48602;45.192;5.722;2023-06-05T06:37:03;11.25;11.00;8.75
62547;PMS7003;48602;45.192;5.722;2023-06-05T06:39:29;11.25;11.25;9.00
62547;PMS7003;48602;45.192;5.722;2023-06-05T06:41:54;11.00;10.00;8.00
62547;PMS7003;48602;45.192;5.722;2023-06-05T06:44:21;10.40;9.40;7.60
62547;PMS7003;48602;45.192;5.722;2023-06-05T06:46:47;11.25;10.75;9.00
62547;PMS7003;48602;45.192;5.722;2023-06-05T06:49:12;13.75;12.00;9.00
62547;PMS7003;48602;45.192;5.722;2023-06-05T06:51:38;11.00;10.00;8.00
62547;PMS7003;48602;45.192;5.722;2023-06-05T06:54:03;13.75;13.50;10.00
62547;PMS7003;48602;45.192;5.722;2023-06-05T06:56:29;10.25;10.25;7.50
62547;PMS7003;48602;45.192;5.722;2023-06-05T06:58:54;12.75;10.75;8.00
62547;PMS7003;48602;45.192;5.722;2023-06-05T07:01:20;9.80;9.80;9.00
62547;PMS7003;48602;45.192;5.722;2023-06-05T07:03:46;12.25;10.00;8.00
62547;PMS7003;48602;45.192;5.722;2023-06-05T07:06:11;10.50;10.50;8.00
62547;PMS7003;48602;45.192;5.722;2023-06-05T07:08:38;15.50;13.25;10.50
62547;PMS7003;48602;45.192;5.722;2023-06-05T07:11:04;12.75;9.75;8.00
62547;PMS7003;48602;45.192;5.722;2023-06-05T07:13:29;6.00;6.00;4.75
62547;PMS7003;48602;45.192;5.722;2023-06-05T07:15:55;9.25;9.00;8.00
62547;PMS7003;48602;45.192;5.722;2023-06-05T07:18:20;11.00;11.00;9.00
62547;PMS7003;48602;45.192;5.722;2023-06-05T07:20:45;10.50;9.50;8.00
62547;PMS7003;48602;45.192;5.722;2023-06-05T07:23:11;11.00;9.75;7.75
62547;PMS7003;48602;45.192;5.722;2023-06-05T07:25:36;11.75;8.75;7.00
62547;PMS7003;48602;45.192;5.722;2023-06-05T07:28:08;8.00;8.00;7.00
62547;PMS7003;48602;45.192;5.722;2023-06-05T07:30:36;12.20;11.40;9.40
62547;PMS7003;48602;45.192;5.722;2023-06-05T07:33:02;7.25;6.25;6.00
62547;PMS7003;48602;45.192;5.722;2023-06-05T07:35:28;8.75;6.75;5.75
62547;PMS7003;48602;45.192;5.722;2023-06-05T07:37:54;8.25;8.00;7.00
62547;PMS7003;48602;45.192;5.722;2023-06-05T07:40:19;9.00;7.75;6.00
62547;PMS7003;48602;45.192;5.722;2023-06-05T07:42:45;7.00;7.00;6.80
62547;PMS7003;48602;45.192;5.722;2023-06-05T07:45:11;5.50;5.00;5.00
62547;PMS7003;48602;45.192;5.722;2023-06-05T07:47:36;5.75;5.75;5.00
62547;PMS7003;48602;45.192;5.722;2023-06-05T07:50:02;4.75;4.75;4.00
62547;PMS7003;48602;45.192;5.722;2023-06-05T07:52:31;7.00;7.00;5.00
62547;PMS7003;48602;45.192;5.722;2023-06-05T07:54:57;7.25;6.00;5.00
62547;PMS7003;48602;45.192;5.722;2023-06-05T07:57:23;7.00;7.00;6.25
62547;PMS7003;48602;45.192;5.722;2023-06-05T07:59:49;12.00;8.00;6.00
62547;PMS7003;48602;45.192;5.722;2023-06-05T08:02:16;6.40;6.40;5.20
62547;PMS7003;48602;45.192;5.722;2023-06-05T08:04:42;7.80;7.20;6.20
62547;PMS7003;48602;45.192;5.722;2023-06-05T08:07:08;5.00;5.00;4.00
62547;PMS7003;48602;45.192;5.722;2023-06-05T08:09:33;8.00;8.00;6.25
62547;PMS7003;48602;45.192;5.722;2023-06-05T08:12:01;7.00;7.00;6.00
62547;PMS7003;48602;45.192;5.722;2023-06-05T08:14:30;8.00;6.60;6.00
62547;PMS7003;48602;45.192;5.722;2023-06-05T08:16:55;1.75;1.75;1.00
62547;PMS7003;48602;45.192;5.722;2023-06-05T08:19:21;9.00;8.00;6.00
62547;PMS7003;48602;45.192;5.722;2023-06-05T08:21:46;9.00;8.25;5.75
62547;PMS7003;48602;45.192;5.722;2023-06-05T08:24:12;8.50;6.75;5.75
62547;PMS7003;48602;45.192;5.722;2023-06-05T08:26:37;7.00;5.75;5.00
62547;PMS7003;48602;45.192;5.722;2023-06-05T08:29:03;6.75;6.75;6.00
62547;PMS7003;48602;45.192;5.722;2023-06-05T08:31:28;7.25;6.00;5.75
62547;PMS7003;48602;45.192;5.722;2023-06-05T08:33:53;8.00;8.00;7.00
62547;PMS7003;48602;45.192;5.722;2023-06-05T08:36:20;8.20;8.20;6.00
62547;PMS7003;48602;45.192;5.722;2023-06-05T08:38:46;9.00;6.20;6.00
62547;PMS7003;48602;45.192;5.722;2023-06-05T08:41:12;7.50;6.75;6.25
62547;PMS7003;48602;45.192;5.722;2023-06-05T08:43:39;8.80;7.60;6.60
62547;PMS7003;48602;45.192;5.722;2023-06-05T08:46:06;6.80;6.80;5.80
62547;PMS7003;48602;45.192;5.722;2023-06-05T08:48:36;9.00;7.80;6.40
62547;PMS7003;48602;45.192;5.722;2023-06-05T08:51:06;8.20;7.60;7.00
62547;PMS7003;48602;45.192;5.722;2023-06-05T08:53:34;7.80;7.40;6.00
62547;PMS7003;48602;45.192;5.722;2023-06-05T08:56:00;7.00;6.25;5.75
62547;PMS7003;48602;45.192;5.722;2023-06-05T08:58:26;6.60;6.20;4.20
62547;PMS7003;48602;45.192;5.722;2023-06-05T09:00:52;9.25;7.00;6.00
62547;PMS7003;48602;45.192;5.722;2023-06-05T09:03:18;8.75;8.00;7.00
62547;PMS7003;48602;45.192;5.722;2023-06-05T09:05:45;9.00;9.00;7.60
62547;PMS7003;48602;45.192;5.722;2023-06-05T09:08:14;10.20;8.20;7.20
62547;PMS7003;48602;45.192;5.722;2023-06-05T09:10:41;8.60;7.60;6.40
62547;PMS7003;48602;45.192;5.722;2023-06-05T09:13:06;10.25;10.25;8.50
62547;PMS7003;48602;45.192;5.722;2023-06-05T09:15:33;8.25;7.50;6.25
62547;PMS7003;48602;45.192;5.722;2023-06-05T09:18:06;5.60;5.20;5.00
62547;PMS7003;48602;45.192;5.722;2023-06-05T09:20:34;9.20;8.20;7.60
62547;PMS7003;48602;45.192;5.722;2023-06-05T09:23:01;7.60;7.60;7.00
62547;PMS7003;48602;45.192;5.722;2023-06-05T09:25:43;6.40;6.40;5.00
62547;PMS7003;48602;45.192;5.722;2023-06-05T09:28:10;8.80;8.80;8.00
62547;PMS7003;48602;45.192;5.722;2023-06-05T09:30:57;9.75;9.75;8.75
62547;PMS7003;48602;45.192;5.722;2023-06-05T09:33:25;11.20;11.20;9.40
62547;PMS7003;48602;45.192;5.722;2023-06-05T09:38:46;8.20;8.00;5.80
62547;PMS7003;48602;45.192;5.722;2023-06-05T09:41:13;7.50;7.50;6.00
62547;PMS7003;48602;45.192;5.722;2023-06-05T09:43:45;8.20;8.20;7.00
62547;PMS7003;48602;45.192;5.722;2023-06-05T09:46:14;7.00;7.00;5.75
62547;PMS7003;48602;45.192;5.722;2023-06-05T09:48:40;6.40;6.40;6.00
62547;PMS7003;48602;45.192;5.722;2023-06-05T09:53:34;7.00;7.00;6.00
62547;PMS7003;48602;45.192;5.722;2023-06-05T09:56:05;7.40;7.40;6.60
62547;PMS7003;48602;45.192;5.722;2023-06-05T09:58:33;8.00;8.00;7.00
62547;PMS7003;48602;45.192;5.722;2023-06-05T10:01:02;10.60;8.80;7.80
62547;PMS7003;48602;45.192;5.722;2023-06-05T10:03:32;9.00;8.60;7.80
62547;PMS7003;48602;45.192;5.722;2023-06-05T10:06:02;12.40;8.60;7.20
62547;PMS7003;48602;45.192;5.722;2023-06-05T10:08:30;8.00;8.00;7.00
62547;PMS7003;48602;45.192;5.722;2023-06-05T10:10:57;9.00;9.00;7.00
62547;PMS7003;48602;45.192;5.722;2023-06-05T10:13:22;9.50;9.50;8.25
62547;PMS7003;48602;45.192;5.722;2023-06-05T10:15:48;6.50;6.50;6.00
62547;PMS7003;48602;45.192;5.722;2023-06-05T10:18:18;8.40;8.40;7.00
62547;PMS7003;48602;45.192;5.722;2023-06-05T10:20:44;10.25;7.50;7.00
62547;PMS7003;48602;45.192;5.722;2023-06-05T10:23:11;10.00;8.80;7.00
62547;PMS7003;48602;45.192;5.722;2023-06-05T10:25:42;9.00;7.40;6.60
62547;PMS7003;48602;45.192;5.722;2023-06-05T10:34:14;5.60;5.60;5.60
62547;PMS7003;48602;45.192;5.722;2023-06-05T10:39:21;9.00;7.40;6.20
62547;PMS7003;48602;45.192;5.722;2023-06-05T10:41:50;9.00;9.00;8.00
62547;PMS7003;48602;45.192;5.722;2023-06-05T10:44:16;10.75;10.75;9.50
62547;PMS7003;48602;45.192;5.722;2023-06-05T10:46:41;8.25;8.25;7.00
62547;PMS7003;48602;45.192;5.722;2023-06-05T10:54:14;7.20;6.00;5.00
62547;PMS7003;48602;45.192;5.722;2023-06-05T10:57:01;8.20;7.40;7.20
62547;PMS7003;48602;45.192;5.722;2023-06-05T10:59:31;10.00;10.00;8.40
62547;PMS7003;48602;45.192;5.722;2023-06-05T11:07:17;6.40;5.60;4.60
62547;PMS7003;48602;45.192;5.722;2023-06-05T11:13:12;22.80;22.20;14.20
62547;PMS7003;48602;45.192;5.722;2023-06-05T11:15:15;8.80;8.60;7.20
62547;PMS7003;48602;45.192;5.722;2023-06-05T11:20:08;10.40;10.20;8.80
62547;PMS7003;48602;45.192;5.722;2023-06-05T11:33:10;8.20;8.00;6.40
62547;PMS7003;48602;45.192;5.722;2023-06-05T11:35:40;7.80;7.60;6.00
62547;PMS7003;48602;45.192;5.722;2023-06-05T11:38:07;9.00;9.00;8.20
62547;PMS7003;48602;45.192;5.722;2023-06-05T11:40:34;8.80;8.80;7.40
62547;PMS7003;48602;45.192;5.722;2023-06-05T11:43:03;10.80;9.80;8.40
62547;PMS7003;48602;45.192;5.722;2023-06-05T11:45:30;8.80;8.80;7.80
62547;PMS7003;48602;45.192;5.722;2023-06-05T11:48:07;11.40;10.00;8.20
62547;PMS7003;48602;45.192;5.722;2023-06-05T11:50:33;9.80;9.40;7.40
62547;PMS7003;48602;45.192;5.722;2023-06-05T11:53:05;10.80;10.80;9.20
62547;PMS7003;48602;45.192;5.722;2023-06-05T11:55:32;11.20;10.40;9.00
62547;PMS7003;48602;45.192;5.722;2023-06-05T11:58:21;10.80;10.80;9.60
62547;PMS7003;48602;45.192;5.722;2023-06-05T12:00:51;11.40;10.00;9.60
62547;PMS7003;48602;45.192;5.722;2023-06-05T12:03:20;10.20;10.00;7.80
62547;PMS7003;48602;45.192;5.722;2023-06-05T12:05:47;10.40;10.40;9.00
62547;PMS7003;48602;45.192;5.722;2023-06-05T12:08:23;12.20;9.60;8.20
62547;PMS7003;48602;45.192;5.722;2023-06-05T12:10:53;11.40;10.80;8.80
62547;PMS7003;48602;45.192;5.722;2023-06-05T12:13:18;10.60;10.40;8.80
62547;PMS7003;48602;45.192;5.722;2023-06-05T12:15:55;12.75;11.25;10.25
62547;PMS7003;48602;45.192;5.722;2023-06-05T12:18:30;14.20;14.00;11.80
62547;PMS7003;48602;45.192;5.722;2023-06-05T12:20:56;12.80;11.40;8.80
62547;PMS7003;48602;45.192;5.722;2023-06-05T12:23:22;13.25;11.75;10.00
62547;PMS7003;48602;45.192;5.722;2023-06-05T12:25:57;11.75;10.75;9.00
62547;PMS7003;48602;45.192;5.722;2023-06-05T12:28:23;10.00;9.80;8.40
62547;PMS7003;48602;45.192;5.722;2023-06-05T12:30:50;13.00;11.60;10.00
62547;PMS7003;48602;45.192;5.722;2023-06-05T12:33:16;13.50;11.75;9.25
62547;PMS7003;48602;45.192;5.722;2023-06-05T12:35:41;13.50;12.50;10.50
62547;PMS7003;48602;45.192;5.722;2023-06-05T12:38:06;11.00;10.00;8.00
62547;PMS7003;48602;45.192;5.722;2023-06-05T12:40:33;11.40;11.40;9.40
62547;PMS7003;48602;45.192;5.722;2023-06-05T12:42:58;10.50;10.50;8.50
62547;PMS7003;48602;45.192;5.722;2023-06-05T12:45:23;12.75;12.75;10.75
62547;PMS7003;48602;45.192;5.722;2023-06-05T12:47:49;10.25;10.00;9.00
62547;PMS7003;48602;45.192;5.722;2023-06-05T12:50:16;11.20;11.20;8.80
62547;PMS7003;48602;45.192;5.722;2023-06-05T12:52:41;14.00;13.25;11.00
62547;PMS7003;48602;45.192;5.722;2023-06-05T12:55:07;13.25;13.25;11.25
62547;PMS7003;48602;45.192;5.722;2023-06-05T12:57:34;8.00;8.00;7.00
62547;PMS7003;48602;45.192;5.722;2023-06-05T13:00:02;12.00;12.00;11.20
62547;PMS7003;48602;45.192;5.722;2023-06-05T13:02:43;11.80;11.80;10.20
62547;PMS7003;48602;45.192;5.722;2023-06-05T13:05:13;10.20;10.20;9.00
62547;PMS7003;48602;45.192;5.722;2023-06-05T13:07:40;11.60;11.60;9.40
62547;PMS7003;48602;45.192;5.722;2023-06-05T13:10:06;13.00;13.00;11.50
62547;PMS7003;48602;45.192;5.722;2023-06-05T13:12:32;12.00;12.00;11.00
62547;PMS7003;48602;45.192;5.722;2023-06-05T13:14:57;17.50;16.00;13.25
62547;PMS7003;48602;45.192;5.722;2023-06-05T13:17:22;12.50;12.50;11.50
62547;PMS7003;48602;45.192;5.722;2023-06-05T13:19:49;14.50;12.25;10.50
62547;PMS7003;48602;45.192;5.722;2023-06-05T13:22:14;17.40;15.40;12.00
62547;PMS7003;48602;45.192;5.722;2023-06-05T13:24:40;19.00;13.00;11.00
62547;PMS7003;48602;45.192;5.722;2023-06-05T13:27:06;12.75;12.75;11.25
62547;PMS7003;48602;45.192;5.722;2023-06-05T13:29:31;13.50;13.50;12.00
62547;PMS7003;48602;45.192;5.722;2023-06-05T13:31:56;12.50;12.50;10.25
62547;PMS7003;48602;45.192;5.722;2023-06-05T13:34:22;13.75;12.75;10.50
62547;PMS7003;48602;45.192;5.722;2023-06-05T13:36:47;15.25;13.75;11.50
62547;PMS7003;48602;45.192;5.722;2023-06-05T13:39:13;14.25;12.00;9.75
62547;PMS7003;48602;45.192;5.722;2023-06-05T13:41:39;12.40;11.80;10.80
62547;PMS7003;48602;45.192;5.722;2023-06-05T13:44:05;10.75;10.75;9.50
62547;PMS7003;48602;45.192;5.722;2023-06-05T13:46:30;14.75;13.00;9.75
62547;PMS7003;48602;45.192;5.722;2023-06-05T13:48:56;13.00;13.00;12.00
62547;PMS7003;48602;45.192;5.722;2023-06-05T13:51:24;14.00;14.00;11.60
62547;PMS7003;48602;45.192;5.722;2023-06-05T13:53:50;14.00;13.75;12.00
62547;PMS7003;48602;45.192;5.722;2023-06-05T13:56:16;16.25;13.00;12.00
62547;PMS7003;48602;45.192;5.722;2023-06-05T13:58:41;14.00;12.50;11.25
62547;PMS7003;48602;45.192;5.722;2023-06-05T14:01:06;13.25;11.75;10.25
62547;PMS7003;48602;45.192;5.722;2023-06-05T14:03:32;12.25;12.25;10.25
62547;PMS7003;48602;45.192;5.722;2023-06-05T14:05:57;13.00;13.00;11.00
62547;PMS7003;48602;45.192;5.722;2023-06-05T14:08:23;12.25;12.25;10.50
62547;PMS7003;48602;45.192;5.722;2023-06-05T14:10:48;9.25;8.50;8.25
62547;PMS7003;48602;45.192;5.722;2023-06-05T14:13:13;12.25;11.75;10.75
62547;PMS7003;48602;45.192;5.722;2023-06-05T14:15:39;11.25;11.25;10.25
62547;PMS7003;48602;45.192;5.722;2023-06-05T14:18:05;10.50;10.50;8.00
62547;PMS7003;48602;45.192;5.722;2023-06-05T14:20:31;13.80;13.40;10.60
62547;PMS7003;48602;45.192;5.722;2023-06-05T14:22:58;14.40;12.20;10.20
62547;PMS7003;48602;45.192;5.722;2023-06-05T14:25:24;13.80;12.80;10.80
62547;PMS7003;48602;45.192;5.722;2023-06-05T14:27:56;11.80;11.60;9.60
62547;PMS7003;48602;45.192;5.722;2023-06-05T14:30:23;13.60;12.80;9.80
62547;PMS7003;48602;45.192;5.722;2023-06-05T14:32:49;11.00;11.00;10.00
62547;PMS7003;48602;45.192;5.722;2023-06-05T14:35:15;13.00;12.00;10.25
62547;PMS7003;48602;45.192;5.722;2023-06-05T14:37:41;11.80;11.60;9.40
62547;PMS7003;48602;45.192;5.722;2023-06-05T14:40:10;12.80;12.80;11.00
62547;PMS7003;48602;45.192;5.722;2023-06-05T14:42:36;10.50;10.50;9.50
62547;PMS7003;48602;45.192;5.722;2023-06-05T14:45:01;13.25;13.00;11.00
62547;PMS7003;48602;45.192;5.722;2023-06-05T14:47:27;11.75;11.75;10.00
62547;PMS7003;48602;45.192;5.722;2023-06-05T14:49:53;14.75;12.50;11.00
62547;PMS7003;48602;45.192;5.722;2023-06-05T14:52:18;10.75;10.50;9.50